sensor_id;sensor_type;location;lat;lon;timestamp;temperature;humidity
22450;DHT22;11392;57.390;-2.468;2023-03-14T00:01:33;0.40;99.90
22450;DHT22;11392;57.390;-2.468;2023-03-14T00:04:00;0.40;99.90
22450;DHT22;11392;57.390;-2.468;2023-03-14T00:06:27;0.30;99.90
22450;DHT22;11392;57.390;-2.468;2023-03-14T00:08:54;0.30;99.90
22450;DHT22;11392;57.390;-2.468;2023-03-14T00:11:21;0.30;99.90
22450;DHT22;11392;57.390;-2.468;2023-03-14T00:13:52;0.30;99.90
22450;DHT22;11392;57.390;-2.468;2023-03-14T00:16:20;0.20;99.90
22450;DHT22;11392;57.390;-2.468;2023-03-14T00:18:47;0.20;99.90
22450;DHT22;11392;57.390;-2.468;2023-03-14T00:21:14;0.20;99.90
22450;DHT22;11392;57.390;-2.468;2023-03-14T00:23:42;0.10;99.90
22450;DHT22;11392;57.390;-2.468;2023-03-14T00:26:12;0.20;99.90
22450;DHT22;11392;57.390;-2.468;2023-03-14T00:28:40;0.20;99.90
22450;DHT22;11392;57.390;-2.468;2023-03-14T00:31:09;0.10;99.90
22450;DHT22;11392;57.390;-2.468;2023-03-14T00:33:36;0.10;99.90
22450;DHT22;11392;57.390;-2.468;2023-03-14T00:36:07;0.00;99.90
22450;DHT22;11392;57.390;-2.468;2023-03-14T00:38:36;0.10;99.90
22450;DHT22;11392;57.390;-2.468;2023-03-14T00:41:12;0.10;99.90
22450;DHT22;11392;57.390;-2.468;2023-03-14T00:43:39;0.20;99.90
22450;DHT22;11392;57.390;-2.468;2023-03-14T00:46:07;0.20;99.90
22450;DHT22;11392;57.390;-2.468;2023-03-14T00:48:34;0.10;99.90
22450;DHT22;11392;57.390;-2.468;2023-03-14T00:51:03;0.10;99.90
22450;DHT22;11392;57.390;-2.468;2023-03-14T00:53:30;0.20;99.90
22450;DHT22;11392;57.390;-2.468;2023-03-14T00:56:01;0.10;99.90
22450;DHT22;11392;57.390;-2.468;2023-03-14T00:58:28;0.10;99.90
22450;DHT22;11392;57.390;-2.468;2023-03-14T01:00:55;0.10;99.90
22450;DHT22;11392;57.390;-2.468;2023-03-14T01:03:22;0.00;99.90
22450;DHT22;11392;57.390;-2.468;2023-03-14T01:05:50;0.00;99.90
22450;DHT22;11392;57.390;-2.468;2023-03-14T01:08:17;0.00;99.90
22450;DHT22;11392;57.390;-2.468;2023-03-14T01:10:44;0.00;99.90
22450;DHT22;11392;57.390;-2.468;2023-03-14T01:13:11;0.10;99.90
22450;DHT22;11392;57.390;-2.468;2023-03-14T01:15:38;0.00;99.90
22450;DHT22;11392;57.390;-2.468;2023-03-14T01:18:05;0.00;99.90
22450;DHT22;11392;57.390;-2.468;2023-03-14T01:20:32;0.00;99.90
22450;DHT22;11392;57.390;-2.468;2023-03-14T01:22:59;0.00;99.90
22450;DHT22;11392;57.390;-2.468;2023-03-14T01:25:26;-0.10;99.90
22450;DHT22;11392;57.390;-2.468;2023-03-14T01:27:53;0.00;99.90
22450;DHT22;11392;57.390;-2.468;2023-03-14T01:30:20;0.00;99.90
22450;DHT22;11392;57.390;-2.468;2023-03-14T01:32:47;-0.10;99.90
22450;DHT22;11392;57.390;-2.468;2023-03-14T01:35:14;-0.10;99.90
22450;DHT22;11392;57.390;-2.468;2023-03-14T01:37:41;-0.10;99.90
22450;DHT22;11392;57.390;-2.468;2023-03-14T01:40:10;-0.10;99.90
22450;DHT22;11392;57.390;-2.468;2023-03-14T01:42:38;-0.20;99.90
22450;DHT22;11392;57.390;-2.468;2023-03-14T01:45:05;-0.20;99.90
22450;DHT22;11392;57.390;-2.468;2023-03-14T01:47:32;-0.20;99.90
22450;DHT22;11392;57.390;-2.468;2023-03-14T01:50:03;-0.20;99.90
22450;DHT22;11392;57.390;-2.468;2023-03-14T01:55:06;-0.30;99.90
22450;DHT22;11392;57.390;-2.468;2023-03-14T01:57:46;-0.30;99.90
22450;DHT22;11392;57.390;-2.468;2023-03-14T02:00:18;-0.30;99.90
22450;DHT22;11392;57.390;-2.468;2023-03-14T02:02:51;-0.30;99.90
22450;DHT22;11392;57.390;-2.468;2023-03-14T02:05:22;-0.30;99.90
22450;DHT22;11392;57.390;-2.468;2023-03-14T02:07:55;-0.20;99.90
22450;DHT22;11392;57.390;-2.468;2023-03-14T02:10:26;-0.20;99.90
22450;DHT22;11392;57.390;-2.468;2023-03-14T02:12:55;-0.20;99.90
22450;DHT22;11392;57.390;-2.468;2023-03-14T02:15:23;-0.30;99.90
22450;DHT22;11392;57.390;-2.468;2023-03-14T02:17:51;-0.30;99.90
22450;DHT22;11392;57.390;-2.468;2023-03-14T02:20:45;-0.30;99.90
22450;DHT22;11392;57.390;-2.468;2023-03-14T02:23:16;-0.30;99.90
22450;DHT22;11392;57.390;-2.468;2023-03-14T02:26:02;-0.30;99.90
22450;DHT22;11392;57.390;-2.468;2023-03-14T02:28:31;-0.30;99.90
22450;DHT22;11392;57.390;-2.468;2023-03-14T02:30:59;-0.30;99.90
22450;DHT22;11392;57.390;-2.468;2023-03-14T02:33:26;-0.20;99.90
22450;DHT22;11392;57.390;-2.468;2023-03-14T02:35:59;-0.30;99.90
22450;DHT22;11392;57.390;-2.468;2023-03-14T02:41:31;-0.30;99.90
22450;DHT22;11392;57.390;-2.468;2023-03-14T02:43:58;-0.40;99.90
22450;DHT22;11392;57.390;-2.468;2023-03-14T02:46:25;-0.50;99.90
22450;DHT22;11392;57.390;-2.468;2023-03-14T02:49:01;-0.50;99.90
22450;DHT22;11392;57.390;-2.468;2023-03-14T02:51:29;-0.60;99.90
22450;DHT22;11392;57.390;-2.468;2023-03-14T02:53:56;-0.60;99.90
22450;DHT22;11392;57.390;-2.468;2023-03-14T02:56:23;-0.60;99.90
22450;DHT22;11392;57.390;-2.468;2023-03-14T02:58:50;-0.70;99.90
22450;DHT22;11392;57.390;-2.468;2023-03-14T03:01:17;-0.70;99.90
22450;DHT22;11392;57.390;-2.468;2023-03-14T03:03:44;-0.70;99.90
22450;DHT22;11392;57.390;-2.468;2023-03-14T03:06:11;-0.70;99.90
22450;DHT22;11392;57.390;-2.468;2023-03-14T03:08:38;-0.70;99.90
22450;DHT22;11392;57.390;-2.468;2023-03-14T03:11:06;-0.80;99.90
22450;DHT22;11392;57.390;-2.468;2023-03-14T03:13:33;-0.80;99.90
22450;DHT22;11392;57.390;-2.468;2023-03-14T03:16:00;-0.70;99.90
22450;DHT22;11392;57.390;-2.468;2023-03-14T03:18:27;-0.70;99.90
22450;DHT22;11392;57.390;-2.468;2023-03-14T03:20:54;-0.70;99.90
22450;DHT22;11392;57.390;-2.468;2023-03-14T03:23:21;-0.80;99.90
22450;DHT22;11392;57.390;-2.468;2023-03-14T03:25:49;-0.90;99.90
22450;DHT22;11392;57.390;-2.468;2023-03-14T03:28:17;-0.90;99.90
22450;DHT22;11392;57.390;-2.468;2023-03-14T03:30:44;-0.90;99.90
22450;DHT22;11392;57.390;-2.468;2023-03-14T03:33:12;-1.00;99.90
22450;DHT22;11392;57.390;-2.468;2023-03-14T03:35:47;-1.00;99.90
22450;DHT22;11392;57.390;-2.468;2023-03-14T03:38:15;-1.10;99.90
22450;DHT22;11392;57.390;-2.468;2023-03-14T03:40:43;-1.10;99.90
22450;DHT22;11392;57.390;-2.468;2023-03-14T03:43:10;-1.20;99.90
22450;DHT22;11392;57.390;-2.468;2023-03-14T03:45:37;-1.20;99.90
22450;DHT22;11392;57.390;-2.468;2023-03-14T03:48:04;-1.30;99.90
22450;DHT22;11392;57.390;-2.468;2023-03-14T03:50:31;-1.20;99.90
22450;DHT22;11392;57.390;-2.468;2023-03-14T03:52:58;-1.20;99.90
22450;DHT22;11392;57.390;-2.468;2023-03-14T03:55:24;-1.20;99.90
22450;DHT22;11392;57.390;-2.468;2023-03-14T03:57:52;-1.20;99.90
22450;DHT22;11392;57.390;-2.468;2023-03-14T04:00:19;-1.20;99.90
22450;DHT22;11392;57.390;-2.468;2023-03-14T04:02:46;-1.20;99.90
22450;DHT22;11392;57.390;-2.468;2023-03-14T04:05:14;-1.20;99.90
22450;DHT22;11392;57.390;-2.468;2023-03-14T04:07:41;-1.10;99.90
22450;DHT22;11392;57.390;-2.468;2023-03-14T04:10:08;-1.10;99.90
22450;DHT22;11392;57.390;-2.468;2023-03-14T04:12:35;-1.10;99.90
22450;DHT22;11392;57.390;-2.468;2023-03-14T04:15:02;-1.10;99.90
22450;DHT22;11392;57.390;-2.468;2023-03-14T04:17:29;-1.10;99.90
22450;DHT22;11392;57.390;-2.468;2023-03-14T04:19:56;-1.10;99.90
22450;DHT22;11392;57.390;-2.468;2023-03-14T04:22:23;-1.10;99.90
22450;DHT22;11392;57.390;-2.468;2023-03-14T04:24:50;-1.10;99.90
22450;DHT22;11392;57.390;-2.468;2023-03-14T04:27:17;-1.10;99.90
22450;DHT22;11392;57.390;-2.468;2023-03-14T04:29:44;-1.10;99.90
22450;DHT22;11392;57.390;-2.468;2023-03-14T04:32:11;-1.20;99.90
22450;DHT22;11392;57.390;-2.468;2023-03-14T04:34:38;-1.20;99.90
22450;DHT22;11392;57.390;-2.468;2023-03-14T04:37:05;-1.20;99.90
22450;DHT22;11392;57.390;-2.468;2023-03-14T04:39:32;-1.20;99.90
22450;DHT22;11392;57.390;-2.468;2023-03-14T04:41:59;-1.20;99.90
22450;DHT22;11392;57.390;-2.468;2023-03-14T04:44:26;-1.30;99.90
22450;DHT22;11392;57.390;-2.468;2023-03-14T04:46:53;-1.30;99.90
22450;DHT22;11392;57.390;-2.468;2023-03-14T04:49:21;-1.30;99.90
22450;DHT22;11392;57.390;-2.468;2023-03-14T04:51:48;-1.20;99.90
22450;DHT22;11392;57.390;-2.468;2023-03-14T04:54:17;-1.20;99.90
22450;DHT22;11392;57.390;-2.468;2023-03-14T04:56:44;-1.20;99.90
22450;DHT22;11392;57.390;-2.468;2023-03-14T04:59:11;-1.20;99.90
22450;DHT22;11392;57.390;-2.468;2023-03-14T05:01:38;-1.30;99.90
22450;DHT22;11392;57.390;-2.468;2023-03-14T05:04:05;-1.30;99.90
22450;DHT22;11392;57.390;-2.468;2023-03-14T05:06:32;-1.20;99.90
22450;DHT22;11392;57.390;-2.468;2023-03-14T05:08:59;-1.20;99.90
22450;DHT22;11392;57.390;-2.468;2023-03-14T05:11:26;-1.20;99.90
22450;DHT22;11392;57.390;-2.468;2023-03-14T05:13:53;-1.20;99.90
22450;DHT22;11392;57.390;-2.468;2023-03-14T05:16:20;-1.20;99.90
22450;DHT22;11392;57.390;-2.468;2023-03-14T05:18:47;-1.30;99.90
22450;DHT22;11392;57.390;-2.468;2023-03-14T05:21:14;-1.30;99.90
22450;DHT22;11392;57.390;-2.468;2023-03-14T05:23:41;-1.40;99.90
22450;DHT22;11392;57.390;-2.468;2023-03-14T05:26:08;-1.50;99.90
22450;DHT22;11392;57.390;-2.468;2023-03-14T05:28:35;-1.50;99.90
22450;DHT22;11392;57.390;-2.468;2023-03-14T05:31:06;-1.50;99.90
22450;DHT22;11392;57.390;-2.468;2023-03-14T05:33:33;-1.60;99.90
22450;DHT22;11392;57.390;-2.468;2023-03-14T05:36:00;-1.60;99.90
22450;DHT22;11392;57.390;-2.468;2023-03-14T05:38:27;-1.60;99.90
22450;DHT22;11392;57.390;-2.468;2023-03-14T05:40:54;-1.60;99.90
22450;DHT22;11392;57.390;-2.468;2023-03-14T05:43:21;-1.60;99.90
22450;DHT22;11392;57.390;-2.468;2023-03-14T05:45:48;-1.60;99.90
22450;DHT22;11392;57.390;-2.468;2023-03-14T05:48:15;-1.60;99.90
22450;DHT22;11392;57.390;-2.468;2023-03-14T05:50:43;-1.50;99.90
22450;DHT22;11392;57.390;-2.468;2023-03-14T05:53:11;-1.50;99.90
22450;DHT22;11392;57.390;-2.468;2023-03-14T05:55:39;-1.50;99.90
22450;DHT22;11392;57.390;-2.468;2023-03-14T05:58:06;-1.50;99.90
22450;DHT22;11392;57.390;-2.468;2023-03-14T06:00:33;-1.50;99.90
22450;DHT22;11392;57.390;-2.468;2023-03-14T06:03:00;-1.40;99.90
22450;DHT22;11392;57.390;-2.468;2023-03-14T06:05:27;-1.40;99.90
22450;DHT22;11392;57.390;-2.468;2023-03-14T06:07:54;-1.20;99.90
22450;DHT22;11392;57.390;-2.468;2023-03-14T06:10:21;-1.20;99.90
22450;DHT22;11392;57.390;-2.468;2023-03-14T06:12:48;-1.20;99.90
22450;DHT22;11392;57.390;-2.468;2023-03-14T06:15:15;-1.20;99.90
22450;DHT22;11392;57.390;-2.468;2023-03-14T06:17:42;-1.10;99.90
22450;DHT22;11392;57.390;-2.468;2023-03-14T06:20:10;-1.10;99.90
22450;DHT22;11392;57.390;-2.468;2023-03-14T06:22:37;-1.10;99.90
22450;DHT22;11392;57.390;-2.468;2023-03-14T06:25:05;-1.10;99.90
22450;DHT22;11392;57.390;-2.468;2023-03-14T06:27:33;-1.10;99.90
22450;DHT22;11392;57.390;-2.468;2023-03-14T06:30:00;-1.10;99.90
22450;DHT22;11392;57.390;-2.468;2023-03-14T06:32:27;-1.10;99.90
22450;DHT22;11392;57.390;-2.468;2023-03-14T06:34:54;-1.10;99.90
22450;DHT22;11392;57.390;-2.468;2023-03-14T06:37:21;-1.10;99.90
22450;DHT22;11392;57.390;-2.468;2023-03-14T06:39:48;-1.10;99.90
22450;DHT22;11392;57.390;-2.468;2023-03-14T06:42:15;-1.20;99.90
22450;DHT22;11392;57.390;-2.468;2023-03-14T06:44:42;-1.20;99.90
22450;DHT22;11392;57.390;-2.468;2023-03-14T06:47:09;-1.20;99.90
22450;DHT22;11392;57.390;-2.468;2023-03-14T06:49:36;-1.20;99.90
22450;DHT22;11392;57.390;-2.468;2023-03-14T06:52:03;-1.20;99.90
22450;DHT22;11392;57.390;-2.468;2023-03-14T06:54:30;-1.10;99.90
22450;DHT22;11392;57.390;-2.468;2023-03-14T06:56:57;-1.10;99.90
22450;DHT22;11392;57.390;-2.468;2023-03-14T06:59:24;-1.00;99.90
22450;DHT22;11392;57.390;-2.468;2023-03-14T07:01:51;-0.80;99.90
22450;DHT22;11392;57.390;-2.468;2023-03-14T07:04:18;-0.50;99.90
22450;DHT22;11392;57.390;-2.468;2023-03-14T07:06:45;-0.40;99.90
22450;DHT22;11392;57.390;-2.468;2023-03-14T07:09:14;-0.10;99.90
22450;DHT22;11392;57.390;-2.468;2023-03-14T07:11:43;-0.10;99.90
22450;DHT22;11392;57.390;-2.468;2023-03-14T07:14:10;-0.40;99.90
22450;DHT22;11392;57.390;-2.468;2023-03-14T07:16:37;-0.50;99.90
22450;DHT22;11392;57.390;-2.468;2023-03-14T07:19:04;-0.50;99.90
22450;DHT22;11392;57.390;-2.468;2023-03-14T07:21:31;-0.50;99.90
22450;DHT22;11392;57.390;-2.468;2023-03-14T07:23:59;-0.60;99.90
22450;DHT22;11392;57.390;-2.468;2023-03-14T07:26:26;-0.60;99.90
22450;DHT22;11392;57.390;-2.468;2023-03-14T07:28:53;-0.70;99.90
22450;DHT22;11392;57.390;-2.468;2023-03-14T07:31:20;-0.30;99.90
22450;DHT22;11392;57.390;-2.468;2023-03-14T07:33:47;0.10;99.90
22450;DHT22;11392;57.390;-2.468;2023-03-14T07:36:14;0.20;99.90
22450;DHT22;11392;57.390;-2.468;2023-03-14T07:38:41;0.50;99.90
22450;DHT22;11392;57.390;-2.468;2023-03-14T07:41:08;0.60;99.90
22450;DHT22;11392;57.390;-2.468;2023-03-14T07:43:35;0.60;99.90
22450;DHT22;11392;57.390;-2.468;2023-03-14T07:46:02;0.80;99.90
22450;DHT22;11392;57.390;-2.468;2023-03-14T07:48:29;0.80;99.90
22450;DHT22;11392;57.390;-2.468;2023-03-14T07:50:56;0.80;99.90
22450;DHT22;11392;57.390;-2.468;2023-03-14T07:53:24;1.00;99.90
22450;DHT22;11392;57.390;-2.468;2023-03-14T07:55:52;1.10;99.90
22450;DHT22;11392;57.390;-2.468;2023-03-14T07:58:20;1.10;99.90
22450;DHT22;11392;57.390;-2.468;2023-03-14T08:00:51;1.20;99.90
22450;DHT22;11392;57.390;-2.468;2023-03-14T08:03:18;1.40;99.90
22450;DHT22;11392;57.390;-2.468;2023-03-14T08:05:49;1.50;99.90
22450;DHT22;11392;57.390;-2.468;2023-03-14T08:08:17;1.40;99.90
22450;DHT22;11392;57.390;-2.468;2023-03-14T08:10:45;1.20;99.90
22450;DHT22;11392;57.390;-2.468;2023-03-14T08:13:13;1.20;99.90
22450;DHT22;11392;57.390;-2.468;2023-03-14T08:15:40;1.00;99.90
22450;DHT22;11392;57.390;-2.468;2023-03-14T08:18:07;1.20;99.90
22450;DHT22;11392;57.390;-2.468;2023-03-14T08:20:35;1.20;99.90
22450;DHT22;11392;57.390;-2.468;2023-03-14T08:23:02;1.10;99.90
22450;DHT22;11392;57.390;-2.468;2023-03-14T08:25:29;1.20;99.90
22450;DHT22;11392;57.390;-2.468;2023-03-14T08:27:57;1.30;99.90
22450;DHT22;11392;57.390;-2.468;2023-03-14T08:30:24;1.50;99.90
22450;DHT22;11392;57.390;-2.468;2023-03-14T08:32:52;1.60;99.90
22450;DHT22;11392;57.390;-2.468;2023-03-14T08:35:19;1.90;99.90
22450;DHT22;11392;57.390;-2.468;2023-03-14T08:37:46;2.00;99.90
22450;DHT22;11392;57.390;-2.468;2023-03-14T08:40:13;2.20;99.90
22450;DHT22;11392;57.390;-2.468;2023-03-14T08:42:40;2.30;99.90
22450;DHT22;11392;57.390;-2.468;2023-03-14T08:45:10;2.40;99.90
22450;DHT22;11392;57.390;-2.468;2023-03-14T08:47:37;2.10;99.90
22450;DHT22;11392;57.390;-2.468;2023-03-14T08:50:05;1.40;99.90
22450;DHT22;11392;57.390;-2.468;2023-03-14T08:52:32;1.00;99.90
22450;DHT22;11392;57.390;-2.468;2023-03-14T08:54:59;1.00;99.90
22450;DHT22;11392;57.390;-2.468;2023-03-14T08:57:27;1.30;99.90
22450;DHT22;11392;57.390;-2.468;2023-03-14T08:59:54;1.60;99.90
22450;DHT22;11392;57.390;-2.468;2023-03-14T09:02:23;1.90;99.90
22450;DHT22;11392;57.390;-2.468;2023-03-14T09:04:50;1.90;99.90
22450;DHT22;11392;57.390;-2.468;2023-03-14T09:07:18;1.30;99.90
22450;DHT22;11392;57.390;-2.468;2023-03-14T09:09:45;0.70;99.90
22450;DHT22;11392;57.390;-2.468;2023-03-14T09:12:12;0.30;99.90
22450;DHT22;11392;57.390;-2.468;2023-03-14T09:14:39;0.00;99.90
22450;DHT22;11392;57.390;-2.468;2023-03-14T09:17:06;-0.10;99.90
22450;DHT22;11392;57.390;-2.468;2023-03-14T09:19:34;-0.10;99.90
22450;DHT22;11392;57.390;-2.468;2023-03-14T09:22:01;-0.10;99.90
22450;DHT22;11392;57.390;-2.468;2023-03-14T09:24:29;-0.20;99.90
22450;DHT22;11392;57.390;-2.468;2023-03-14T09:26:57;-0.10;99.90
22450;DHT22;11392;57.390;-2.468;2023-03-14T09:29:25;-0.10;99.90
22450;DHT22;11392;57.390;-2.468;2023-03-14T09:31:52;-0.10;99.90
22450;DHT22;11392;57.390;-2.468;2023-03-14T09:34:19;0.20;99.90
22450;DHT22;11392;57.390;-2.468;2023-03-14T09:36:46;0.30;99.90
22450;DHT22;11392;57.390;-2.468;2023-03-14T09:39:13;0.30;99.90
22450;DHT22;11392;57.390;-2.468;2023-03-14T09:41:43;0.00;99.90
22450;DHT22;11392;57.390;-2.468;2023-03-14T09:44:33;0.00;99.90
22450;DHT22;11392;57.390;-2.468;2023-03-14T09:47:06;-0.10;99.90
22450;DHT22;11392;57.390;-2.468;2023-03-14T09:49:36;0.00;99.90
22450;DHT22;11392;57.390;-2.468;2023-03-14T09:52:12;0.20;99.90
22450;DHT22;11392;57.390;-2.468;2023-03-14T09:54:44;0.20;99.90
22450;DHT22;11392;57.390;-2.468;2023-03-14T09:57:15;0.30;99.90
22450;DHT22;11392;57.390;-2.468;2023-03-14T09:59:45;0.40;99.90
22450;DHT22;11392;57.390;-2.468;2023-03-14T10:02:19;0.60;99.90
22450;DHT22;11392;57.390;-2.468;2023-03-14T10:04:48;0.70;99.90
22450;DHT22;11392;57.390;-2.468;2023-03-14T10:07:19;0.90;99.90
22450;DHT22;11392;57.390;-2.468;2023-03-14T10:09:50;0.80;99.90
22450;DHT22;11392;57.390;-2.468;2023-03-14T10:12:18;0.80;99.90
22450;DHT22;11392;57.390;-2.468;2023-03-14T10:14:51;0.80;99.90
22450;DHT22;11392;57.390;-2.468;2023-03-14T10:17:20;0.80;99.90
22450;DHT22;11392;57.390;-2.468;2023-03-14T10:19:53;0.80;99.90
22450;DHT22;11392;57.390;-2.468;2023-03-14T10:22:21;0.90;99.90
22450;DHT22;11392;57.390;-2.468;2023-03-14T10:24:53;1.00;99.90
22450;DHT22;11392;57.390;-2.468;2023-03-14T10:27:26;1.10;99.90
22450;DHT22;11392;57.390;-2.468;2023-03-14T10:30:06;1.20;99.90
22450;DHT22;11392;57.390;-2.468;2023-03-14T10:32:38;1.30;99.90
22450;DHT22;11392;57.390;-2.468;2023-03-14T10:38:01;1.40;99.90
22450;DHT22;11392;57.390;-2.468;2023-03-14T10:40:34;1.50;99.90
22450;DHT22;11392;57.390;-2.468;2023-03-14T10:43:05;1.60;99.90
22450;DHT22;11392;57.390;-2.468;2023-03-14T10:45:37;1.60;99.90
22450;DHT22;11392;57.390;-2.468;2023-03-14T10:48:23;1.40;99.90
22450;DHT22;11392;57.390;-2.468;2023-03-14T10:53:25;1.10;99.90
22450;DHT22;11392;57.390;-2.468;2023-03-14T10:55:56;1.10;99.90
22450;DHT22;11392;57.390;-2.468;2023-03-14T10:58:28;1.10;99.90
22450;DHT22;11392;57.390;-2.468;2023-03-14T11:03:51;1.30;99.90
22450;DHT22;11392;57.390;-2.468;2023-03-14T11:06:21;1.40;99.90
22450;DHT22;11392;57.390;-2.468;2023-03-14T11:09:18;1.30;99.90
22450;DHT22;11392;57.390;-2.468;2023-03-14T11:11:42;1.10;99.90
22450;DHT22;11392;57.390;-2.468;2023-03-14T11:14:29;1.20;99.90
22450;DHT22;11392;57.390;-2.468;2023-03-14T11:20:29;1.30;99.90
22450;DHT22;11392;57.390;-2.468;2023-03-14T11:27:03;1.20;99.90
22450;DHT22;11392;57.390;-2.468;2023-03-14T11:31:55;1.30;99.90
22450;DHT22;11392;57.390;-2.468;2023-03-14T11:34:28;1.40;99.90
22450;DHT22;11392;57.390;-2.468;2023-03-14T11:37:07;1.50;99.90
22450;DHT22;11392;57.390;-2.468;2023-03-14T11:39:44;1.40;99.90
22450;DHT22;11392;57.390;-2.468;2023-03-14T11:42:15;1.40;99.90
22450;DHT22;11392;57.390;-2.468;2023-03-14T11:44:46;1.40;99.90
22450;DHT22;11392;57.390;-2.468;2023-03-14T11:47:38;1.30;99.90
22450;DHT22;11392;57.390;-2.468;2023-03-14T11:53:04;1.10;99.90
22450;DHT22;11392;57.390;-2.468;2023-03-14T11:55:37;1.20;99.90
22450;DHT22;11392;57.390;-2.468;2023-03-14T11:58:19;1.20;99.90
22450;DHT22;11392;57.390;-2.468;2023-03-14T12:00:48;1.40;99.90
22450;DHT22;11392;57.390;-2.468;2023-03-14T12:06:27;1.80;99.90
22450;DHT22;11392;57.390;-2.468;2023-03-14T12:08:54;2.10;99.90
22450;DHT22;11392;57.390;-2.468;2023-03-14T12:11:44;2.10;99.90
22450;DHT22;11392;57.390;-2.468;2023-03-14T12:14:33;2.40;99.90
22450;DHT22;11392;57.390;-2.468;2023-03-14T12:17:21;2.70;99.90
22450;DHT22;11392;57.390;-2.468;2023-03-14T12:30:35;2.70;99.90
22450;DHT22;11392;57.390;-2.468;2023-03-14T12:35:52;2.80;99.90
22450;DHT22;11392;57.390;-2.468;2023-03-14T12:41:29;3.00;99.90
22450;DHT22;11392;57.390;-2.468;2023-03-14T12:44:41;3.10;99.90
22450;DHT22;11392;57.390;-2.468;2023-03-14T12:49:53;3.90;99.90
22450;DHT22;11392;57.390;-2.468;2023-03-14T12:55:45;3.60;99.90
22450;DHT22;11392;57.390;-2.468;2023-03-14T13:01:03;4.90;99.90
22450;DHT22;11392;57.390;-2.468;2023-03-14T13:04:02;4.80;99.90
22450;DHT22;11392;57.390;-2.468;2023-03-14T13:06:49;4.40;99.90
22450;DHT22;11392;57.390;-2.468;2023-03-14T13:12:13;3.60;99.90
22450;DHT22;11392;57.390;-2.468;2023-03-14T13:14:47;3.60;99.90
22450;DHT22;11392;57.390;-2.468;2023-03-14T13:17:18;4.70;99.90
22450;DHT22;11392;57.390;-2.468;2023-03-14T13:20:05;5.20;99.90
22450;DHT22;11392;57.390;-2.468;2023-03-14T13:22:36;5.30;99.90
22450;DHT22;11392;57.390;-2.468;2023-03-14T13:25:07;4.90;99.90
22450;DHT22;11392;57.390;-2.468;2023-03-14T13:27:36;4.80;99.90
22450;DHT22;11392;57.390;-2.468;2023-03-14T13:30:23;5.50;99.90
22450;DHT22;11392;57.390;-2.468;2023-03-14T13:32:51;5.40;99.90
22450;DHT22;11392;57.390;-2.468;2023-03-14T13:35:27;5.00;99.90
22450;DHT22;11392;57.390;-2.468;2023-03-14T13:37:58;4.60;99.90
22450;DHT22;11392;57.390;-2.468;2023-03-14T13:40:37;4.50;99.90
22450;DHT22;11392;57.390;-2.468;2023-03-14T13:46:04;3.80;99.90
22450;DHT22;11392;57.390;-2.468;2023-03-14T13:48:34;3.80;99.90
22450;DHT22;11392;57.390;-2.468;2023-03-14T13:51:04;3.90;99.90
22450;DHT22;11392;57.390;-2.468;2023-03-14T13:53:44;4.10;99.90
22450;DHT22;11392;57.390;-2.468;2023-03-14T13:56:12;4.20;99.90
22450;DHT22;11392;57.390;-2.468;2023-03-14T13:58:40;4.70;99.90
22450;DHT22;11392;57.390;-2.468;2023-03-14T14:03:42;5.40;99.90
22450;DHT22;11392;57.390;-2.468;2023-03-14T14:08:52;5.20;99.90
22450;DHT22;11392;57.390;-2.468;2023-03-14T14:14:34;4.70;99.90
22450;DHT22;11392;57.390;-2.468;2023-03-14T14:17:05;3.70;99.90
22450;DHT22;11392;57.390;-2.468;2023-03-14T14:19:35;4.00;99.90
22450;DHT22;11392;57.390;-2.468;2023-03-14T14:22:03;4.50;99.90
22450;DHT22;11392;57.390;-2.468;2023-03-14T14:24:32;4.80;99.90
22450;DHT22;11392;57.390;-2.468;2023-03-14T14:27:17;4.80;99.90
22450;DHT22;11392;57.390;-2.468;2023-03-14T14:29:44;4.30;99.90
22450;DHT22;11392;57.390;-2.468;2023-03-14T14:32:23;3.80;99.90
22450;DHT22;11392;57.390;-2.468;2023-03-14T14:34:58;3.50;99.90
22450;DHT22;11392;57.390;-2.468;2023-03-14T14:40:28;2.80;99.90
22450;DHT22;11392;57.390;-2.468;2023-03-14T14:42:54;2.70;99.90
22450;DHT22;11392;57.390;-2.468;2023-03-14T14:45:23;2.60;99.90
22450;DHT22;11392;57.390;-2.468;2023-03-14T14:48:10;2.70;99.90
22450;DHT22;11392;57.390;-2.468;2023-03-14T14:51:01;3.40;99.90
22450;DHT22;11392;57.390;-2.468;2023-03-14T14:53:43;4.10;99.90
22450;DHT22;11392;57.390;-2.468;2023-03-14T14:56:17;4.80;99.90
22450;DHT22;11392;57.390;-2.468;2023-03-14T14:58:46;5.30;99.90
22450;DHT22;11392;57.390;-2.468;2023-03-14T15:01:19;5.60;99.90
22450;DHT22;11392;57.390;-2.468;2023-03-14T15:03:51;6.10;99.90
22450;DHT22;11392;57.390;-2.468;2023-03-14T15:06:19;5.20;99.90
22450;DHT22;11392;57.390;-2.468;2023-03-14T15:08:47;5.10;99.90
22450;DHT22;11392;57.390;-2.468;2023-03-14T15:11:21;4.70;99.90
22450;DHT22;11392;57.390;-2.468;2023-03-14T15:13:50;4.80;99.90
22450;DHT22;11392;57.390;-2.468;2023-03-14T15:16:19;4.90;99.90
22450;DHT22;11392;57.390;-2.468;2023-03-14T15:18:54;4.60;99.90
22450;DHT22;11392;57.390;-2.468;2023-03-14T15:21:26;4.50;99.90
22450;DHT22;11392;57.390;-2.468;2023-03-14T15:23:53;4.60;99.90
22450;DHT22;11392;57.390;-2.468;2023-03-14T15:26:23;4.50;99.90
22450;DHT22;11392;57.390;-2.468;2023-03-14T15:28:50;4.60;99.90
22450;DHT22;11392;57.390;-2.468;2023-03-14T15:31:18;4.50;99.90
22450;DHT22;11392;57.390;-2.468;2023-03-14T15:33:46;4.30;99.90
22450;DHT22;11392;57.390;-2.468;2023-03-14T15:36:26;4.40;99.90
22450;DHT22;11392;57.390;-2.468;2023-03-14T15:38:54;4.40;99.90
22450;DHT22;11392;57.390;-2.468;2023-03-14T15:41:22;4.40;99.90
22450;DHT22;11392;57.390;-2.468;2023-03-14T15:43:49;4.30;99.90
22450;DHT22;11392;57.390;-2.468;2023-03-14T15:46:16;4.10;99.90
22450;DHT22;11392;57.390;-2.468;2023-03-14T15:48:49;4.10;99.90
22450;DHT22;11392;57.390;-2.468;2023-03-14T15:51:17;4.00;99.90
22450;DHT22;11392;57.390;-2.468;2023-03-14T15:53:44;3.70;99.90
22450;DHT22;11392;57.390;-2.468;2023-03-14T15:56:14;3.50;99.90
22450;DHT22;11392;57.390;-2.468;2023-03-14T15:58:42;3.40;99.90
22450;DHT22;11392;57.390;-2.468;2023-03-14T16:01:14;3.30;99.90
22450;DHT22;11392;57.390;-2.468;2023-03-14T16:03:45;3.30;99.90
22450;DHT22;11392;57.390;-2.468;2023-03-14T16:06:13;3.10;99.90
22450;DHT22;11392;57.390;-2.468;2023-03-14T16:08:41;3.20;99.90
22450;DHT22;11392;57.390;-2.468;2023-03-14T16:11:12;3.10;99.90
22450;DHT22;11392;57.390;-2.468;2023-03-14T16:13:41;3.00;99.90
22450;DHT22;11392;57.390;-2.468;2023-03-14T16:16:08;2.90;99.90
22450;DHT22;11392;57.390;-2.468;2023-03-14T16:18:37;2.90;99.90
22450;DHT22;11392;57.390;-2.468;2023-03-14T16:21:06;2.70;99.90
22450;DHT22;11392;57.390;-2.468;2023-03-14T16:23:35;2.70;99.90
22450;DHT22;11392;57.390;-2.468;2023-03-14T16:26:07;2.50;99.90
22450;DHT22;11392;57.390;-2.468;2023-03-14T16:28:34;2.40;99.90
22450;DHT22;11392;57.390;-2.468;2023-03-14T16:31:07;2.50;99.90
22450;DHT22;11392;57.390;-2.468;2023-03-14T16:33:35;2.50;99.90
22450;DHT22;11392;57.390;-2.468;2023-03-14T16:36:04;2.60;99.90
22450;DHT22;11392;57.390;-2.468;2023-03-14T16:38:35;2.60;99.90
22450;DHT22;11392;57.390;-2.468;2023-03-14T16:43:39;2.60;99.90
22450;DHT22;11392;57.390;-2.468;2023-03-14T16:46:11;2.40;99.90
22450;DHT22;11392;57.390;-2.468;2023-03-14T16:48:38;2.30;99.90
22450;DHT22;11392;57.390;-2.468;2023-03-14T16:51:05;1.90;99.90
22450;DHT22;11392;57.390;-2.468;2023-03-14T16:53:32;1.80;99.90
22450;DHT22;11392;57.390;-2.468;2023-03-14T16:55:59;1.60;99.90